createdAt,value
2023-04-08T00:00:05.031Z,102494.66
2023-04-08T00:02:06.851Z,102491.94
2023-04-08T00:04:08.516Z,102497.22
2023-04-08T00:06:10.399Z,102493.66
2023-04-08T00:08:13.794Z,102499.06
2023-04-08T00:10:15.457Z,102493.66
2023-04-08T00:12:17.296Z,102496.38
2023-04-08T00:14:22.323Z,102496.38
2023-04-08T00:16:24.379Z,102494.53
2023-04-08T00:18:26.175Z,102496.25
2023-04-08T00:20:28.244Z,102500.78
2023-04-08T00:22:30.055Z,102497.09
2023-04-08T00:24:33.141Z,102502.50
2023-04-08T00:26:34.748Z,102507.91
2023-04-08T00:28:36.320Z,102504.34
2023-04-08T00:30:38.344Z,102510.63
2023-04-08T00:32:40.147Z,102510.63
2023-04-08T00:34:42.037Z,102505.34
2023-04-08T00:36:44.868Z,102505.44
2023-04-08T00:38:46.687Z,102509.88
2023-04-08T00:40:49.948Z,102512.56
2023-04-08T00:42:51.479Z,102503.59
2023-04-08T00:44:53.345Z,102498.22
2023-04-08T00:46:55.356Z,102502.75
2023-04-08T00:48:57.153Z,102494.66
2023-04-08T00:50:58.908Z,102498.38
2023-04-08T00:53:00.664Z,102504.75
2023-04-08T00:55:02.719Z,102497.50
2023-04-08T00:57:06.525Z,102500.22
2023-04-08T00:59:08.353Z,102500.22
2023-04-08T01:01:16.645Z,102502.91
2023-04-08T01:03:26.850Z,102507.31
2023-04-08T01:05:35.888Z,102504.75
2023-04-08T01:07:43.682Z,102509.28
2023-04-08T01:09:48.484Z,102492.38
2023-04-08T01:11:52.593Z,102496.06
2023-04-08T01:13:57.365Z,102496.06
2023-04-08T01:15:59.136Z,102496.06
2023-04-08T01:18:06.178Z,102497.91
2023-04-08T01:20:10.497Z,102491.63
2023-04-08T01:22:19.522Z,102498.88
2023-04-08T01:24:28.544Z,102493.47
2023-04-08T01:26:32.490Z,102498.03
2023-04-08T01:28:36.365Z,102501.75
2023-04-08T01:30:39.473Z,102503.44
2023-04-08T01:32:43.614Z,102507.13
2023-04-08T01:34:45.549Z,102508.81
2023-04-08T01:36:48.882Z,102508.81
2023-04-08T01:38:51.268Z,102499.91
2023-04-08T01:40:55.225Z,102510.69
2023-04-08T01:43:00.775Z,102509.84
2023-04-08T01:45:04.891Z,102511.69
2023-04-08T01:47:07.215Z,102509.84
2023-04-08T01:49:10.247Z,102501.84
2023-04-08T01:51:13.241Z,102508.25
2023-04-08T01:53:15.052Z,102510.94
2023-04-08T01:55:17.413Z,102512.66
2023-04-08T01:57:24.482Z,102518.91
2023-04-08T01:59:31.912Z,102518.22
2023-04-08T02:01:35.982Z,102520.06
2023-04-08T02:03:38.435Z,102520.06
2023-04-08T02:05:40.570Z,102518.34
2023-04-08T02:07:42.358Z,102521.91
2023-04-08T02:09:44.618Z,102525.56
2023-04-08T02:11:46.430Z,102522.88
2023-04-08T02:16:03.201Z,102521.03
2023-04-08T02:18:11.897Z,102517.59
2023-04-08T02:20:17.817Z,102518.44
2023-04-08T02:22:31.356Z,102514.91
2023-04-08T02:24:34.357Z,102520.44
2023-04-08T02:26:39.055Z,102519.47
2023-04-08T02:28:41.806Z,102517.75
2023-04-08T02:30:48.510Z,102516.03
2023-04-08T02:32:54.282Z,102523.16
2023-04-08T02:34:57.988Z,102511.50
2023-04-08T02:36:59.997Z,102515.03
2023-04-08T02:39:02.080Z,102516.88
2023-04-08T02:41:03.918Z,102517.75
2023-04-08T02:43:05.519Z,102513.22
2023-04-08T02:45:08.363Z,102521.31
2023-04-08T02:47:09.996Z,102517.75
2023-04-08T02:49:13.081Z,102517.75
2023-04-08T02:51:14.665Z,102523.00
2023-04-08T02:53:16.518Z,102525.84
2023-04-08T02:55:18.622Z,102521.16
2023-04-08T02:57:20.156Z,102519.31
2023-04-08T02:59:21.867Z,102523.84
2023-04-08T03:01:23.706Z,102517.59
2023-04-08T03:03:25.318Z,102520.44
2023-04-08T03:05:28.448Z,102527.56
2023-04-08T03:07:29.988Z,102534.81
2023-04-08T03:09:31.592Z,102530.28
2023-04-08T03:11:33.512Z,102531.09
2023-04-08T03:13:36.088Z,102535.66
2023-04-08T03:15:37.960Z,102535.66
2023-04-08T03:17:39.840Z,102530.97
2023-04-08T03:19:41.440Z,102546.31
2023-04-08T03:21:44.526Z,102536.38
2023-04-08T03:23:46.600Z,102537.22
2023-04-08T03:25:48.400Z,102534.53
2023-04-08T03:27:50.201Z,102535.41
2023-04-08T03:29:52.097Z,102532.53
2023-04-08T03:31:54.041Z,102529.13
2023-04-08T03:33:55.746Z,102534.41
2023-04-08T03:35:57.852Z,102535.25
2023-04-08T03:38:00.920Z,102538.81
2023-04-08T03:40:02.772Z,102533.41
2023-04-08T03:42:04.661Z,102539.66
2023-04-08T03:44:06.679Z,102535.25
2023-04-08T03:46:09.826Z,102539.66
2023-04-08T03:48:11.474Z,102537.81
2023-04-08T03:50:13.218Z,102539.66
2023-04-08T03:52:14.822Z,102529.72
2023-04-08T03:54:18.058Z,102540.53
2023-04-08T03:56:19.695Z,102537.81
2023-04-08T03:58:21.596Z,102538.69
2023-04-08T04:00:23.307Z,102536.84
2023-04-08T04:02:26.462Z,102543.94
2023-04-08T04:04:28.798Z,102543.94
2023-04-08T04:06:30.386Z,102546.63
2023-04-08T04:08:31.928Z,102554.63
2023-04-08T04:10:35.104Z,102556.44
2023-04-08T04:12:36.750Z,102552.91
2023-04-08T04:14:38.543Z,102556.44
2023-04-08T04:16:40.107Z,102564.56
2023-04-08T04:18:41.939Z,102556.44
2023-04-08T04:20:45.035Z,102564.56
2023-04-08T04:22:46.643Z,102556.44
2023-04-08T04:24:48.746Z,102554.72
2023-04-08T04:26:51.746Z,102560.00
2023-04-08T04:28:58.581Z,102570.94
2023-04-08T04:31:03.276Z,102564.72
2023-04-08T04:33:05.088Z,102572.66
2023-04-08T04:35:07.323Z,102569.09
2023-04-08T04:37:09.174Z,102574.38
2023-04-08T04:39:11.274Z,102570.81
2023-04-08T04:41:13.295Z,102564.44
2023-04-08T04:43:16.488Z,102574.22
2023-04-08T04:45:18.438Z,102579.63
2023-04-08T04:47:20.286Z,102571.53
2023-04-08T04:49:22.999Z,102576.94
2023-04-08T04:51:26.245Z,102587.59
2023-04-08T04:53:28.825Z,102582.31
2023-04-08T04:55:30.676Z,102582.47
2023-04-08T04:57:32.561Z,102583.19
2023-04-08T04:59:35.564Z,102594.00
2023-04-08T05:01:37.859Z,102585.88
2023-04-08T05:03:39.672Z,102596.56
2023-04-08T05:05:41.293Z,102595.72
2023-04-08T05:07:42.844Z,102591.28
2023-04-08T05:09:44.501Z,102598.41
2023-04-08T05:11:46.347Z,102602.84
2023-04-08T05:13:48.208Z,102596.44
2023-04-08T05:15:51.296Z,102595.44
2023-04-08T05:17:53.147Z,102607.09
2023-04-08T05:19:54.677Z,102602.69
2023-04-08T05:21:56.554Z,102599.97
2023-04-08T05:23:58.393Z,102607.97
2023-04-08T05:25:59.968Z,102615.22
2023-04-08T05:28:01.625Z,102607.25
2023-04-08T05:30:03.767Z,102611.78
2023-04-08T05:32:07.285Z,102622.44
2023-04-08T05:34:08.866Z,102627.00
2023-04-08T05:36:11.355Z,102614.34
2023-04-08T05:38:12.957Z,102623.31
2023-04-08T05:40:14.547Z,102623.31
2023-04-08T05:42:16.060Z,102619.63
2023-04-08T05:44:17.874Z,102620.50
2023-04-08T05:46:19.735Z,102624.75
2023-04-08T05:48:22.896Z,102626.59
2023-04-08T05:50:25.253Z,102632.00
2023-04-08T05:52:27.060Z,102629.19
2023-04-08T05:54:29.269Z,102630.88
2023-04-08T05:56:30.811Z,102632.75
2023-04-08T05:58:32.386Z,102640.69
2023-04-08T06:00:34.019Z,102633.38
2023-04-08T06:02:35.878Z,102635.22
2023-04-08T06:04:39.516Z,102633.38
2023-04-08T06:06:41.167Z,102639.59
2023-04-08T06:08:42.978Z,102640.47
2023-04-08T06:10:49.816Z,102644.03
2023-04-08T06:12:51.470Z,102653.84
2023-04-08T06:14:54.745Z,102654.72
2023-04-08T06:16:56.376Z,102649.16
2023-04-08T06:18:58.524Z,102649.16
2023-04-08T06:21:02.145Z,102658.13
2023-04-08T06:23:04.170Z,102659.84
2023-04-08T06:25:07.300Z,102658.88
2023-04-08T06:27:08.951Z,102663.25
2023-04-08T06:29:10.824Z,102663.25
2023-04-08T06:31:12.482Z,102660.44
2023-04-08T06:33:14.102Z,102662.28
2023-04-08T06:35:16.200Z,102667.56
2023-04-08T06:37:19.157Z,102663.84
2023-04-08T06:39:24.089Z,102662.00
2023-04-08T06:41:26.085Z,102671.84
2023-04-08T06:43:27.680Z,102679.81
2023-04-08T06:45:29.357Z,102683.38
2023-04-08T06:47:31.004Z,102681.38
2023-04-08T06:49:32.654Z,102676.97
2023-04-08T06:51:34.491Z,102691.34
2023-04-08T06:53:37.572Z,102692.19
2023-04-08T06:55:39.238Z,102687.66
2023-04-08T06:57:40.979Z,102696.47
2023-04-08T06:59:43.044Z,102696.63
2023-04-08T07:01:44.913Z,102705.44
2023-04-08T07:03:46.820Z,102701.75
2023-04-08T07:05:50.087Z,102702.63
2023-04-08T07:07:52.429Z,102703.47
2023-04-08T07:09:55.599Z,102704.31
2023-04-08T07:11:57.155Z,102709.59
2023-04-08T07:13:58.714Z,102707.75
2023-04-08T07:16:00.348Z,102713.88
2023-04-08T07:18:02.735Z,102713.88
2023-04-08T07:20:06.316Z,102710.19
2023-04-08T07:22:08.131Z,102711.91
2023-04-08T07:24:09.749Z,102710.06
2023-04-08T07:26:13.353Z,102708.94
2023-04-08T07:28:14.892Z,102711.53
2023-04-08T07:30:16.516Z,102709.63
2023-04-08T07:32:18.296Z,102703.25
2023-04-08T07:34:20.088Z,102710.38
2023-04-08T07:36:21.694Z,102710.25
2023-04-08T07:38:24.559Z,102699.44
2023-04-08T07:40:26.255Z,102698.44
2023-04-08T07:42:30.072Z,102701.03
2023-04-08T07:44:32.070Z,102703.56
2023-04-08T07:46:37.133Z,102702.59
2023-04-08T07:48:38.875Z,102705.28
2023-04-08T07:51:08.005Z,102705.19
2023-04-08T07:53:02.275Z,102705.88
2023-04-08T07:55:04.312Z,102708.59
2023-04-08T07:57:06.284Z,102711.16
2023-04-08T07:59:09.379Z,102709.19
2023-04-08T08:01:18.386Z,102705.38
2023-04-08T08:03:20.039Z,102719.72
2023-04-08T08:05:21.865Z,102709.50
2023-04-08T08:07:23.685Z,102708.50
2023-04-08T08:09:25.496Z,102705.69
2023-04-08T08:11:28.374Z,102700.84
2023-04-08T08:13:30.422Z,102714.22
2023-04-08T08:15:34.127Z,102713.97
2023-04-08T08:17:36.071Z,102719.25
2023-04-08T08:19:39.781Z,102723.50
2023-04-08T08:21:41.598Z,102725.09
2023-04-08T08:23:43.626Z,102728.53
2023-04-08T08:25:45.748Z,102726.69
2023-04-08T08:27:47.276Z,102735.53
2023-04-08T08:29:49.171Z,102733.66
2023-04-08T08:31:52.076Z,102735.09
2023-04-08T08:33:53.682Z,102742.09
2023-04-08T08:35:55.413Z,102742.09
2023-04-08T08:37:57.087Z,102747.38
2023-04-08T08:39:58.893Z,102752.66
2023-04-08T08:42:00.513Z,102755.34
2023-04-08T08:44:02.879Z,102750.66
2023-04-08T08:46:04.758Z,102758.78
2023-04-08T08:48:08.374Z,102751.41
2023-04-08T08:50:10.700Z,102752.09
2023-04-08T08:52:16.236Z,102758.25
2023-04-08T08:54:17.820Z,102751.00
2023-04-08T08:56:19.456Z,102767.94
2023-04-08T08:58:21.278Z,102765.94
2023-04-08T09:00:34.361Z,102765.81
2023-04-08T09:02:36.683Z,102763.09
2023-04-08T09:04:57.105Z,102764.56
2023-04-08T09:07:12.346Z,102760.13
2023-04-08T09:09:14.391Z,102770.94
2023-04-08T09:11:18.317Z,102767.25
2023-04-08T09:13:19.951Z,102770.81
2023-04-08T09:15:21.772Z,102777.97
2023-04-08T09:17:32.535Z,102766.00
2023-04-08T09:19:34.293Z,102776.81
2023-04-08T09:21:38.289Z,102777.69
2023-04-08T09:23:42.250Z,102773.13
2023-04-08T09:25:43.958Z,102786.50
2023-04-08T09:27:46.040Z,102781.09
2023-04-08T09:29:48.078Z,102782.81
2023-04-08T09:31:54.157Z,102778.97
2023-04-08T09:33:58.064Z,102784.25
2023-04-08T09:35:59.967Z,102795.78
2023-04-08T09:38:03.106Z,102790.25
2023-04-08T09:40:05.776Z,102790.84
2023-04-08T09:42:12.017Z,102789.69
2023-04-08T09:44:15.648Z,102790.28
2023-04-08T09:46:18.894Z,102791.00
2023-04-08T09:48:27.793Z,102790.56
2023-04-08T09:50:32.640Z,102795.88
2023-04-08T09:52:44.165Z,102788.44
2023-04-08T09:54:54.677Z,102796.16
2023-04-08T09:57:04.633Z,102789.63
2023-04-08T09:59:14.039Z,102793.91
2023-04-08T10:01:21.229Z,102798.06
2023-04-08T10:03:29.858Z,102796.78
2023-04-08T10:05:32.469Z,102788.22
2023-04-08T10:07:35.493Z,102791.53
2023-04-08T10:09:38.126Z,102795.66
2023-04-08T10:11:41.418Z,102797.09
2023-04-08T10:13:43.772Z,102796.56
2023-04-08T10:15:45.305Z,102804.22
2023-04-08T10:17:46.916Z,102808.25
2023-04-08T10:19:48.731Z,102800.69
2023-04-08T10:21:50.591Z,102806.56
2023-04-08T10:23:56.964Z,102792.56
2023-04-08T10:25:58.805Z,102798.56
2023-04-08T10:28:22.400Z,102805.41
2023-04-08T10:30:43.653Z,102803.84
2023-04-08T10:32:45.576Z,102803.84
2023-04-08T10:34:52.944Z,102800.88
2023-04-08T10:36:56.698Z,102800.69
2023-04-08T10:38:59.498Z,102804.28
2023-04-08T10:41:01.326Z,102802.41
2023-04-08T10:43:05.451Z,102808.53
2023-04-08T10:45:07.933Z,102800.41
2023-04-08T10:47:09.494Z,102797.56
2023-04-08T10:49:11.318Z,102804.56
2023-04-08T10:51:13.142Z,102800.16
2023-04-08T10:53:15.064Z,102809.84
2023-04-08T10:55:16.967Z,102798.00
2023-04-08T10:57:25.475Z,102807.81
2023-04-08T10:59:32.525Z,102811.41
2023-04-08T11:01:40.984Z,102804.13
2023-04-08T11:03:43.329Z,102807.81
2023-04-08T11:05:45.258Z,102800.56
2023-04-08T11:07:46.801Z,102804.25
2023-04-08T11:09:49.411Z,102798.13
2023-04-08T11:11:52.381Z,102800.72
2023-04-08T11:13:56.701Z,102795.28
2023-04-08T11:16:00.781Z,102798.00
2023-04-08T11:18:03.748Z,102800.72
2023-04-08T11:20:08.365Z,102804.25
2023-04-08T11:22:12.452Z,102799.69
2023-04-08T11:24:14.080Z,102802.28
2023-04-08T11:26:15.883Z,102800.13
2023-04-08T11:28:18.758Z,102806.25
2023-04-08T11:30:22.620Z,102800.72
2023-04-08T11:32:26.171Z,102804.00
2023-04-08T11:34:28.176Z,102801.16
2023-04-08T11:36:29.825Z,102806.28
2023-04-08T11:38:31.724Z,102801.72
2023-04-08T11:40:33.377Z,102808.84
2023-04-08T11:42:35.201Z,102806.13
2023-04-08T11:44:36.840Z,102802.44
2023-04-08T11:46:39.110Z,102806.00
2023-04-08T11:48:56.980Z,102803.16
2023-04-08T11:51:03.584Z,102799.28
2023-04-08T11:53:17.047Z,102803.56
2023-04-08T11:55:25.088Z,102804.41
2023-04-08T11:57:29.091Z,102797.13
2023-04-08T11:59:30.741Z,102808.00
2023-04-08T12:01:32.391Z,102810.69
2023-04-08T12:03:34.214Z,102809.72
2023-04-08T12:05:38.254Z,102813.41
2023-04-08T12:07:39.856Z,102809.84
2023-04-08T12:09:41.444Z,102818.84
2023-04-08T12:11:43.300Z,102813.53
2023-04-08T12:13:44.947Z,102817.13
2023-04-08T12:15:46.816Z,102817.28
2023-04-08T12:17:49.406Z,102819.25
2023-04-08T12:19:50.991Z,102817.41
2023-04-08T12:21:54.084Z,102824.69
2023-04-08T12:23:55.640Z,102823.84
2023-04-08T12:25:57.436Z,102823.13
2023-04-08T12:27:59.072Z,102827.69
2023-04-08T12:30:01.865Z,102831.41
2023-04-08T12:32:03.496Z,102828.69
2023-04-08T12:34:05.301Z,102830.53
2023-04-08T12:36:07.743Z,102825.97
2023-04-08T12:38:11.123Z,102828.84
2023-04-08T12:40:13.674Z,102828.84
2023-04-08T12:42:15.480Z,102828.84
2023-04-08T12:44:18.129Z,102830.53
2023-04-08T12:46:19.813Z,102832.44
2023-04-08T12:48:21.500Z,102825.97
2023-04-08T12:50:23.282Z,102826.84
2023-04-08T12:52:24.906Z,102834.13
2023-04-08T12:54:27.992Z,102833.81
2023-04-08T12:56:30.104Z,102831.97
2023-04-08T12:58:32.176Z,102832.69
2023-04-08T13:00:34.006Z,102832.53
2023-04-08T13:02:35.872Z,102834.38
2023-04-08T13:04:37.605Z,102845.09
2023-04-08T13:06:39.158Z,102841.53
2023-04-08T13:08:40.820Z,102842.41
2023-04-08T13:10:44.021Z,102835.25
2023-04-08T13:12:45.855Z,102838.81
2023-04-08T13:14:47.682Z,102838.13
2023-04-08T13:16:49.293Z,102830.97
2023-04-08T13:18:51.393Z,102836.53
2023-04-08T13:20:53.384Z,102832.13
2023-04-08T13:22:55.052Z,102836.53
2023-04-08T13:24:56.679Z,102823.84
2023-04-08T13:26:59.610Z,102830.97
2023-04-08T13:29:02.551Z,102830.69
2023-04-08T13:31:04.252Z,102834.13
2023-04-08T13:33:05.913Z,102832.09
2023-04-08T13:35:08.367Z,102825.69
2023-04-08T13:37:09.976Z,102833.41
2023-04-08T13:39:11.529Z,102829.66
2023-04-08T13:41:13.438Z,102829.53
2023-04-08T13:43:16.531Z,102830.22
2023-04-08T13:45:18.384Z,102826.53
2023-04-08T13:47:20.265Z,102827.38
2023-04-08T13:49:21.921Z,102827.38
2023-04-08T13:51:24.108Z,102823.69
2023-04-08T13:53:26.046Z,102828.94
2023-04-08T13:55:28.020Z,102827.09
2023-04-08T13:57:29.852Z,102827.09
2023-04-08T13:59:34.057Z,102828.81
2023-04-08T14:01:35.813Z,102824.94
2023-04-08T14:03:37.397Z,102819.50
2023-04-08T14:05:38.990Z,102816.66
2023-04-08T14:07:41.111Z,102825.50
2023-04-08T14:09:42.727Z,102820.94
2023-04-08T14:11:44.614Z,102822.78
2023-04-08T14:13:46.209Z,102820.94
2023-04-08T14:15:49.395Z,102816.50
2023-04-08T14:17:51.731Z,102816.50
2023-04-08T14:19:53.394Z,102824.63
2023-04-08T14:21:54.931Z,102822.78
2023-04-08T14:23:56.720Z,102818.38
2023-04-08T14:25:58.493Z,102822.94
2023-04-08T14:28:01.808Z,102821.91
2023-04-08T14:30:04.364Z,102818.38
2023-04-08T14:32:07.567Z,102818.38
2023-04-08T14:34:09.208Z,102810.25
2023-04-08T14:36:11.324Z,102821.09
2023-04-08T14:38:14.756Z,102816.34
2023-04-08T14:40:16.314Z,102812.78
2023-04-08T14:42:18.162Z,102812.78
2023-04-08T14:44:20.933Z,102821.78
2023-04-08T14:46:23.378Z,102823.66
2023-04-08T14:48:29.984Z,102818.22
2023-04-08T14:50:31.625Z,102813.94
2023-04-08T14:52:33.283Z,102810.25
2023-04-08T14:54:34.904Z,102812.09
2023-04-08T14:56:36.481Z,102818.38
2023-04-08T14:58:38.418Z,102808.34
2023-04-08T15:00:40.086Z,102819.94
2023-04-08T15:02:42.081Z,102814.50
2023-04-08T15:04:45.378Z,102814.50
2023-04-08T15:06:47.087Z,102810.06
2023-04-08T15:08:49.184Z,102808.22
2023-04-08T15:10:51.647Z,102812.78
2023-04-08T15:12:53.480Z,102812.66
2023-04-08T15:14:55.333Z,102815.38
2023-04-08T15:16:56.919Z,102810.81
2023-04-08T15:18:58.728Z,102814.34
2023-04-08T15:21:01.881Z,102809.78
2023-04-08T15:23:03.935Z,102811.50
2023-04-08T15:25:06.965Z,102810.63
2023-04-08T15:27:08.528Z,102811.63
2023-04-08T15:29:10.432Z,102811.78
2023-04-08T15:31:12.343Z,102807.34
2023-04-08T15:33:14.397Z,102812.09
2023-04-08T15:35:16.172Z,102811.38
2023-04-08T15:37:19.355Z,102809.66
2023-04-08T15:39:20.950Z,102804.22
2023-04-08T15:41:23.252Z,102808.66
2023-04-08T15:43:24.875Z,102808.66
2023-04-08T15:45:26.500Z,102807.66
2023-04-08T15:47:28.379Z,102806.66
2023-04-08T15:49:30.769Z,102807.66
2023-04-08T15:51:33.261Z,102809.50
2023-04-08T15:53:36.615Z,102812.22
2023-04-08T15:55:38.897Z,102818.50
2023-04-08T15:57:40.959Z,102817.78
2023-04-08T15:59:42.771Z,102819.66
2023-04-08T16:01:44.394Z,102818.81
2023-04-08T16:03:46.812Z,102827.09
2023-04-08T16:05:48.539Z,102820.78
2023-04-08T16:07:50.138Z,102819.94
2023-04-08T16:09:53.397Z,102828.25
2023-04-08T16:11:55.185Z,102822.94
2023-04-08T16:13:56.958Z,102827.69
2023-04-08T16:16:01.537Z,102833.25
2023-04-08T16:18:04.529Z,102831.69
2023-04-08T16:20:07.549Z,102829.97
2023-04-08T16:22:09.176Z,102828.41
2023-04-08T16:24:10.834Z,102824.97
2023-04-08T16:26:14.572Z,102827.84
2023-04-08T16:28:16.531Z,102827.97
2023-04-08T16:30:18.122Z,102827.28
2023-04-08T16:32:20.008Z,102825.56
2023-04-08T16:34:21.781Z,102830.97
2023-04-08T16:36:23.402Z,102827.41
2023-04-08T16:38:25.614Z,102822.97
2023-04-08T16:40:27.221Z,102834.69
2023-04-08T16:42:30.866Z,102828.41
2023-04-08T16:44:32.971Z,102837.56
2023-04-08T16:46:34.613Z,102838.56
2023-04-08T16:48:36.379Z,102840.56
2023-04-08T16:50:38.326Z,102840.69
2023-04-08T16:52:39.855Z,102841.00
2023-04-08T16:54:41.502Z,102845.69
2023-04-08T16:56:43.305Z,102840.56
2023-04-08T16:58:46.536Z,102847.94
2023-04-08T17:00:48.128Z,102845.53
2023-04-08T17:02:50.449Z,102843.81
2023-04-08T17:04:52.436Z,102856.63
2023-04-08T17:06:54.064Z,102850.34
2023-04-08T17:08:55.869Z,102853.22
2023-04-08T17:11:05.942Z,102857.78
2023-04-08T17:13:07.885Z,102847.22
2023-04-08T17:15:12.222Z,102859.94
2023-04-08T17:17:14.539Z,102863.78
2023-04-08T17:19:16.357Z,102861.22
2023-04-08T17:21:18.173Z,102864.91
2023-04-08T17:23:19.809Z,102865.19
2023-04-08T17:25:21.627Z,102866.19
2023-04-08T17:27:24.159Z,102865.47
2023-04-08T17:29:27.415Z,102862.19
2023-04-08T17:31:30.501Z,102866.06
2023-04-08T17:33:32.180Z,102875.19
2023-04-08T17:35:33.974Z,102872.59
2023-04-08T17:37:35.559Z,102872.75
2023-04-08T17:39:37.583Z,102872.88
2023-04-08T17:41:41.254Z,102878.31
2023-04-08T17:43:43.738Z,102870.34
2023-04-08T17:45:45.617Z,102877.72
2023-04-08T17:47:48.657Z,102869.88
2023-04-08T17:49:54.320Z,102878.13
2023-04-08T17:51:55.953Z,102880.00
2023-04-08T17:53:58.097Z,102882.13
2023-04-08T17:56:00.216Z,102886.72
2023-04-08T17:58:01.813Z,102887.69
2023-04-08T18:00:06.617Z,102886.97
2023-04-08T18:02:09.196Z,102885.28
2023-04-08T18:04:12.925Z,102884.41
2023-04-08T18:06:14.981Z,102897.22
2023-04-08T18:08:16.811Z,102889.25
2023-04-08T18:10:18.830Z,102890.25
2023-04-08T18:12:20.831Z,102891.22
2023-04-08T18:14:22.584Z,102895.06
2023-04-08T18:16:24.422Z,102897.78
2023-04-08T18:18:26.296Z,102902.50
2023-04-08T18:20:29.891Z,102902.50
2023-04-08T18:22:31.796Z,102901.75
2023-04-08T18:24:33.483Z,102912.59
2023-04-08T18:26:35.065Z,102908.16
2023-04-08T18:28:36.930Z,102914.59
2023-04-08T18:30:38.760Z,102913.88
2023-04-08T18:32:40.437Z,102909.44
2023-04-08T18:34:42.285Z,102917.72
2023-04-08T18:36:45.561Z,102915.13
2023-04-08T18:38:47.106Z,102919.69
2023-04-08T18:40:48.772Z,102918.84
2023-04-08T18:42:50.581Z,102917.13
2023-04-08T18:44:52.780Z,102918.13
2023-04-08T18:46:54.544Z,102928.25
2023-04-08T18:48:57.143Z,102927.50
2023-04-08T18:50:58.806Z,102926.78
2023-04-08T18:53:01.745Z,102925.94
2023-04-08T18:55:03.643Z,102933.19
2023-04-08T18:57:05.164Z,102934.19
2023-04-08T18:59:07.415Z,102931.63
2023-04-08T19:01:09.293Z,102936.19
2023-04-08T19:03:11.224Z,102925.63
2023-04-08T19:05:13.388Z,102926.47
2023-04-08T19:07:16.552Z,102933.75
2023-04-08T19:09:19.659Z,102926.59
2023-04-08T19:11:21.993Z,102929.44
2023-04-08T19:13:23.895Z,102937.56
2023-04-08T19:15:25.835Z,102932.16
2023-04-08T19:17:27.717Z,102925.88
2023-04-08T19:19:29.362Z,102925.16
2023-04-08T19:21:31.227Z,102928.84
2023-04-08T19:23:33.069Z,102928.84
2023-04-08T19:25:36.117Z,102931.72
2023-04-08T19:27:37.749Z,102928.16
2023-04-08T19:29:39.581Z,102930.84
2023-04-08T19:31:41.224Z,102921.13
2023-04-08T19:33:43.197Z,102923.00
2023-04-08T19:35:45.048Z,102923.13
2023-04-08T19:37:46.648Z,102921.41
2023-04-08T19:39:48.543Z,102921.41
2023-04-08T19:41:51.910Z,102918.84
2023-04-08T19:43:53.852Z,102916.25
2023-04-08T19:45:56.293Z,102926.09
2023-04-08T19:47:58.112Z,102919.13
2023-04-08T19:49:59.912Z,102916.41
2023-04-08T19:52:01.598Z,102918.25
2023-04-08T19:54:03.456Z,102928.34
2023-04-08T19:56:05.798Z,102924.78
2023-04-08T19:58:09.276Z,102929.47
2023-04-08T20:00:14.151Z,102924.19
2023-04-08T20:02:16.053Z,102927.91
2023-04-08T20:04:18.024Z,102931.44
2023-04-08T20:06:20.325Z,102921.63
2023-04-08T20:08:22.131Z,102919.91
2023-04-08T20:10:23.894Z,102925.31
2023-04-08T20:12:25.608Z,102921.91
2023-04-08T20:14:28.735Z,102924.63
2023-04-08T20:16:30.412Z,102923.75
2023-04-08T20:18:32.286Z,102926.47
2023-04-08T20:20:35.708Z,102929.28
2023-04-08T20:22:37.302Z,102931.13
2023-04-08T20:24:39.141Z,102937.41
2023-04-08T20:26:40.740Z,102926.84
2023-04-08T20:28:45.896Z,102928.69
2023-04-08T20:30:49.013Z,102929.69
2023-04-08T20:32:51.070Z,102927.84
2023-04-08T20:34:52.716Z,102926.09
2023-04-08T20:36:54.530Z,102932.38
2023-04-08T20:38:56.340Z,102928.97
2023-04-08T20:40:57.929Z,102928.97
2023-04-08T20:42:59.549Z,102930.81
2023-04-08T20:45:01.340Z,102929.94
2023-04-08T20:47:05.427Z,102929.09
2023-04-08T20:49:07.302Z,102927.41
2023-04-08T20:51:08.973Z,102924.69
2023-04-08T20:53:10.773Z,102929.09
2023-04-08T20:55:12.404Z,102927.41
2023-04-08T20:57:14.240Z,102924.69
2023-04-08T20:59:15.878Z,102935.50
2023-04-08T21:01:17.863Z,102929.25
2023-04-08T21:03:21.389Z,102930.22
2023-04-08T21:05:23.034Z,102928.38
2023-04-08T21:07:25.210Z,102927.50
2023-04-08T21:09:26.803Z,102931.09
2023-04-08T21:11:28.851Z,102928.38
2023-04-08T21:13:30.840Z,102930.22
2023-04-08T21:15:32.673Z,102930.22
2023-04-08T21:17:34.581Z,102932.94
2023-04-08T21:19:37.646Z,102933.91
2023-04-08T21:21:39.528Z,102934.91
2023-04-08T21:23:41.160Z,102938.47
2023-04-08T21:25:44.187Z,102933.19
2023-04-08T21:27:45.859Z,102931.47
2023-04-08T21:29:50.819Z,102936.88
2023-04-08T21:31:52.783Z,102938.72
2023-04-08T21:33:54.677Z,102937.88
2023-04-08T21:35:58.169Z,102939.72
2023-04-08T21:37:59.819Z,102934.44
2023-04-08T21:40:01.918Z,102944.41
2023-04-08T21:42:03.976Z,102936.41
2023-04-08T21:44:05.655Z,102937.41
2023-04-08T21:46:07.267Z,102942.84
2023-04-08T21:48:09.363Z,102937.53
2023-04-08T21:50:11.164Z,102934.97
2023-04-08T21:52:14.319Z,102933.25
2023-04-08T21:54:16.206Z,102934.25
2023-04-08T21:56:18.075Z,102929.81
2023-04-08T21:58:19.654Z,102927.97
2023-04-08T22:00:21.339Z,102932.50
2023-04-08T22:02:23.417Z,102930.66
2023-04-08T22:04:25.127Z,102926.13
2023-04-08T22:06:31.984Z,102925.25
2023-04-08T22:08:35.824Z,102931.66
2023-04-08T22:10:38.100Z,102929.81
2023-04-08T22:12:39.605Z,102920.00
2023-04-08T22:14:41.728Z,102920.13
2023-04-08T22:16:43.387Z,102927.38
2023-04-08T22:18:45.252Z,102922.81
2023-04-08T22:20:47.100Z,102923.69
2023-04-08T22:22:48.947Z,102919.25
2023-04-08T22:24:52.210Z,102913.84
2023-04-08T22:26:53.891Z,102917.28
2023-04-08T22:28:55.596Z,102924.41
2023-04-08T22:30:58.243Z,102919.00
2023-04-08T22:33:00.073Z,102915.41
2023-04-08T22:35:01.894Z,102915.41
2023-04-08T22:37:03.512Z,102917.28
2023-04-08T22:39:05.113Z,102909.19
2023-04-08T22:41:16.536Z,102914.44
2023-04-08T22:43:18.437Z,102912.59
2023-04-08T22:45:20.434Z,102909.88
2023-04-08T22:47:25.566Z,102910.63
2023-04-08T22:49:27.433Z,102906.06
2023-04-08T22:51:29.022Z,102906.06
2023-04-08T22:53:30.794Z,102912.31
2023-04-08T22:55:32.339Z,102912.22
2023-04-08T22:57:35.305Z,102910.47
2023-04-08T22:59:36.822Z,102910.38
2023-04-08T23:01:38.512Z,102907.66
2023-04-08T23:03:40.543Z,102909.34
2023-04-08T23:05:42.375Z,102905.94
2023-04-08T23:07:44.210Z,102906.66
2023-04-08T23:09:45.974Z,102919.34
2023-04-08T23:11:47.731Z,102914.75
2023-04-08T23:13:51.117Z,102915.50
2023-04-08T23:15:53.306Z,102910.97
2023-04-08T23:17:55.139Z,102907.38
2023-04-08T23:19:56.733Z,102910.09
2023-04-08T23:21:58.338Z,102908.25